<?xml version="1.0" encoding="UTF-8" standalone="no" ?>
<gpx xmlns="http://www.topografix.com/GPX/1/1" xmlns:xsi="http://www.w3.org/2001/XMLSchema-instance" xsi:schemaLocation="http://www.topografix.com/GPX/1/1 http://www.topografix.com/GPX/1/1/gpx.xsd" version="1.1" creator="VisuGPX - https://www.visugpx.com">
  <metadata>
    <name>13954268-PSB1</name>
  </metadata>
  <trk>
    <name><![CDATA[13954268-PSB1]]></name>
    <trkseg>
      <trkpt lat="46.99487" lon="-0.89246">
        <ele>131</ele>
        <time>2021-11-23T06:59:10Z</time>
      </trkpt>
      <trkpt lat="46.99495" lon="-0.8934">
        <ele>128</ele>
        <time>2021-11-23T07:00:36Z</time>
      </trkpt>
      <trkpt lat="46.99419" lon="-0.89326">
        <ele>129</ele>
        <time>2021-11-23T07:02:18Z</time>
      </trkpt>
      <trkpt lat="46.99327" lon="-0.89293">
        <ele>131</ele>
        <time>2021-11-23T07:04:25Z</time>
      </trkpt>
      <trkpt lat="46.99263" lon="-0.89228">
        <ele>134</ele>
        <time>2021-11-23T07:06:09Z</time>
      </trkpt>
      <trkpt lat="46.99197" lon="-0.89337">
        <ele>133</ele>
        <time>2021-11-23T07:08:21Z</time>
      </trkpt>
      <trkpt lat="46.99138" lon="-0.8942">
        <ele>132</ele>
        <time>2021-11-23T07:10:11Z</time>
      </trkpt>
      <trkpt lat="46.99089" lon="-0.89503">
        <ele>133</ele>
        <time>2021-11-23T07:11:50Z</time>
      </trkpt>
      <trkpt lat="46.99037" lon="-0.89643">
        <ele>134</ele>
        <time>2021-11-23T07:14:16Z</time>
      </trkpt>
      <trkpt lat="46.98971" lon="-0.89777">
        <ele>134</ele>
        <time>2021-11-23T07:16:46Z</time>
      </trkpt>
      <trkpt lat="46.98875" lon="-0.89896">
        <ele>132</ele>
        <time>2021-11-23T07:19:34Z</time>
      </trkpt>
      <trkpt lat="46.98786" lon="-0.89806">
        <ele>135</ele>
        <time>2021-11-23T07:21:58Z</time>
      </trkpt>
      <trkpt lat="46.9871" lon="-0.89698">
        <ele>139</ele>
        <time>2021-11-23T07:24:19Z</time>
      </trkpt>
      <trkpt lat="46.98633" lon="-0.8955">
        <ele>143</ele>
        <time>2021-11-23T07:27:09Z</time>
      </trkpt>
      <trkpt lat="46.98574" lon="-0.89651">
        <ele>141</ele>
        <time>2021-11-23T07:29:10Z</time>
      </trkpt>
      <trkpt lat="46.98557" lon="-0.89701">
        <ele>140</ele>
        <time>2021-11-23T07:30:01Z</time>
      </trkpt>
      <trkpt lat="46.98495" lon="-0.89784">
        <ele>138</ele>
        <time>2021-11-23T07:31:53Z</time>
      </trkpt>
      <trkpt lat="46.98473" lon="-0.89871">
        <ele>137</ele>
        <time>2021-11-23T07:33:17Z</time>
      </trkpt>
      <trkpt lat="46.98451" lon="-0.89975">
        <ele>137</ele>
        <time>2021-11-23T07:34:56Z</time>
      </trkpt>
      <trkpt lat="46.98412" lon="-0.90076">
        <ele>137</ele>
        <time>2021-11-23T07:36:42Z</time>
      </trkpt>
      <trkpt lat="46.98367" lon="-0.90177">
        <ele>138</ele>
        <time>2021-11-23T07:38:32Z</time>
      </trkpt>
      <trkpt lat="46.9835" lon="-0.90315">
        <ele>139</ele>
        <time>2021-11-23T07:40:39Z</time>
      </trkpt>
      <trkpt lat="46.98298" lon="-0.90408">
        <ele>142</ele>
        <time>2021-11-23T07:42:29Z</time>
      </trkpt>
      <trkpt lat="46.98163" lon="-0.9065">
        <ele>148</ele>
        <time>2021-11-23T07:47:13Z</time>
      </trkpt>
      <trkpt lat="46.98121" lon="-0.90737">
        <ele>149</ele>
        <time>2021-11-23T07:48:51Z</time>
      </trkpt>
      <trkpt lat="46.98074" lon="-0.90964">
        <ele>150</ele>
        <time>2021-11-23T07:52:26Z</time>
      </trkpt>
      <trkpt lat="46.98023" lon="-0.90665">
        <ele>147</ele>
        <time>2021-11-23T07:57:07Z</time>
      </trkpt>
      <trkpt lat="46.98005" lon="-0.90524">
        <ele>146</ele>
        <time>2021-11-23T07:59:18Z</time>
      </trkpt>
      <trkpt lat="46.97969" lon="-0.90322">
        <ele>148</ele>
        <time>2021-11-23T08:02:28Z</time>
      </trkpt>
      <trkpt lat="46.98138" lon="-0.90322">
        <ele>142</ele>
        <time>2021-11-23T08:06:13Z</time>
      </trkpt>
      <trkpt lat="46.98269" lon="-0.90271">
        <ele>140</ele>
        <time>2021-11-23T08:09:14Z</time>
      </trkpt>
      <trkpt lat="46.98345" lon="-0.90257">
        <ele>140</ele>
        <time>2021-11-23T08:10:56Z</time>
      </trkpt>
      <trkpt lat="46.98409" lon="-0.90026">
        <ele>137</ele>
        <time>2021-11-23T08:14:43Z</time>
      </trkpt>
      <trkpt lat="46.98442" lon="-0.89951">
        <ele>137</ele>
        <time>2021-11-23T08:16:05Z</time>
      </trkpt>
      <trkpt lat="46.9846" lon="-0.89861">
        <ele>137</ele>
        <time>2021-11-23T08:17:30Z</time>
      </trkpt>
      <trkpt lat="46.98483" lon="-0.89777">
        <ele>138</ele>
        <time>2021-11-23T08:18:52Z</time>
      </trkpt>
      <trkpt lat="46.98549" lon="-0.89689">
        <ele>140</ele>
        <time>2021-11-23T08:20:51Z</time>
      </trkpt>
      <trkpt lat="46.98568" lon="-0.8964">
        <ele>142</ele>
        <time>2021-11-23T08:21:43Z</time>
      </trkpt>
      <trkpt lat="46.98622" lon="-0.89538">
        <ele>144</ele>
        <time>2021-11-23T08:23:40Z</time>
      </trkpt>
      <trkpt lat="46.98694" lon="-0.89617">
        <ele>141</ele>
        <time>2021-11-23T08:25:40Z</time>
      </trkpt>
      <trkpt lat="46.9876" lon="-0.8974">
        <ele>137</ele>
        <time>2021-11-23T08:28:03Z</time>
      </trkpt>
      <trkpt lat="46.98807" lon="-0.89775">
        <ele>135</ele>
        <time>2021-11-23T08:29:13Z</time>
      </trkpt>
      <trkpt lat="46.98845" lon="-0.89831">
        <ele>134</ele>
        <time>2021-11-23T08:30:25Z</time>
      </trkpt>
      <trkpt lat="46.98886" lon="-0.89839">
        <ele>133</ele>
        <time>2021-11-23T08:31:20Z</time>
      </trkpt>
      <trkpt lat="46.98932" lon="-0.89786">
        <ele>133</ele>
        <time>2021-11-23T08:32:38Z</time>
      </trkpt>
      <trkpt lat="46.98985" lon="-0.89713">
        <ele>135</ele>
        <time>2021-11-23T08:34:15Z</time>
      </trkpt>
      <trkpt lat="46.99012" lon="-0.89629">
        <ele>134</ele>
        <time>2021-11-23T08:35:40Z</time>
      </trkpt>
      <trkpt lat="46.99056" lon="-0.89532">
        <ele>134</ele>
        <time>2021-11-23T08:37:26Z</time>
      </trkpt>
      <trkpt lat="46.99105" lon="-0.89444">
        <ele>132</ele>
        <time>2021-11-23T08:39:09Z</time>
      </trkpt>
      <trkpt lat="46.99223" lon="-0.89675">
        <ele>133</ele>
        <time>2021-11-23T08:43:32Z</time>
      </trkpt>
      <trkpt lat="46.99197" lon="-0.89724">
        <ele>132</ele>
        <time>2021-11-23T08:44:29Z</time>
      </trkpt>
      <trkpt lat="46.99234" lon="-0.89802">
        <ele>132</ele>
        <time>2021-11-23T08:45:55Z</time>
      </trkpt>
      <trkpt lat="46.99286" lon="-0.89842">
        <ele>132</ele>
        <time>2021-11-23T08:47:13Z</time>
      </trkpt>
      <trkpt lat="46.99283" lon="-0.8993">
        <ele>132</ele>
        <time>2021-11-23T08:48:34Z</time>
      </trkpt>
      <trkpt lat="46.99176" lon="-0.90024">
        <ele>130</ele>
        <time>2021-11-23T08:51:20Z</time>
      </trkpt>
      <trkpt lat="46.99192" lon="-0.90057">
        <ele>130</ele>
        <time>2021-11-23T08:51:57Z</time>
      </trkpt>
      <trkpt lat="46.99283" lon="-0.9">
        <ele>131</ele>
        <time>2021-11-23T08:54:09Z</time>
      </trkpt>
      <trkpt lat="46.99435" lon="-0.90106">
        <ele>123</ele>
        <time>2021-11-23T08:57:54Z</time>
      </trkpt>
      <trkpt lat="46.99536" lon="-0.90033">
        <ele>123</ele>
        <time>2021-11-23T09:00:24Z</time>
      </trkpt>
      <trkpt lat="46.99553" lon="-0.90085">
        <ele>123</ele>
        <time>2021-11-23T09:01:16Z</time>
      </trkpt>
      <trkpt lat="46.9955" lon="-0.90188">
        <ele>121</ele>
        <time>2021-11-23T09:02:50Z</time>
      </trkpt>
      <trkpt lat="46.99662" lon="-0.90252">
        <ele>121</ele>
        <time>2021-11-23T09:05:31Z</time>
      </trkpt>
      <trkpt lat="46.99693" lon="-0.9025">
        <ele>120</ele>
        <time>2021-11-23T09:06:12Z</time>
      </trkpt>
      <trkpt lat="46.99772" lon="-0.90309">
        <ele>118</ele>
        <time>2021-11-23T09:08:10Z</time>
      </trkpt>
      <trkpt lat="46.99846" lon="-0.90227">
        <ele>118</ele>
        <time>2021-11-23T09:10:14Z</time>
      </trkpt>
      <trkpt lat="46.99909" lon="-0.90297">
        <ele>117</ele>
        <time>2021-11-23T09:12:00Z</time>
      </trkpt>
      <trkpt lat="46.9995" lon="-0.90252">
        <ele>117</ele>
        <time>2021-11-23T09:13:08Z</time>
      </trkpt>
      <trkpt lat="47.00031" lon="-0.90245">
        <ele>116</ele>
        <time>2021-11-23T09:14:56Z</time>
      </trkpt>
      <trkpt lat="47.00074" lon="-0.90215">
        <ele>117</ele>
        <time>2021-11-23T09:16:00Z</time>
      </trkpt>
      <trkpt lat="47.00049" lon="-0.90154">
        <ele>118</ele>
        <time>2021-11-23T09:17:04Z</time>
      </trkpt>
      <trkpt lat="47.00062" lon="-0.90133">
        <ele>119</ele>
        <time>2021-11-23T09:17:30Z</time>
      </trkpt>
      <trkpt lat="47.00041" lon="-0.90076">
        <ele>121</ele>
        <time>2021-11-23T09:18:29Z</time>
      </trkpt>
      <trkpt lat="47.00035" lon="-0.90012">
        <ele>122</ele>
        <time>2021-11-23T09:19:28Z</time>
      </trkpt>
      <trkpt lat="47.00049" lon="-0.89945">
        <ele>126</ele>
        <time>2021-11-23T09:20:32Z</time>
      </trkpt>
      <trkpt lat="47.00031" lon="-0.89881">
        <ele>130</ele>
        <time>2021-11-23T09:21:35Z</time>
      </trkpt>
      <trkpt lat="47.00091" lon="-0.89845">
        <ele>133</ele>
        <time>2021-11-23T09:23:01Z</time>
      </trkpt>
      <trkpt lat="47.0014" lon="-0.89769">
        <ele>139</ele>
        <time>2021-11-23T09:24:36Z</time>
      </trkpt>
      <trkpt lat="47.00167" lon="-0.89784">
        <ele>137</ele>
        <time>2021-11-23T09:25:15Z</time>
      </trkpt>
      <trkpt lat="47.00227" lon="-0.89751">
        <ele>139</ele>
        <time>2021-11-23T09:26:41Z</time>
      </trkpt>
      <trkpt lat="47.00271" lon="-0.8973">
        <ele>139</ele>
        <time>2021-11-23T09:27:42Z</time>
      </trkpt>
      <trkpt lat="47.00225" lon="-0.89541">
        <ele>144</ele>
        <time>2021-11-23T09:30:45Z</time>
      </trkpt>
      <trkpt lat="47.00207" lon="-0.89426">
        <ele>145</ele>
        <time>2021-11-23T09:32:32Z</time>
      </trkpt>
      <trkpt lat="47.00165" lon="-0.89186">
        <ele>146</ele>
        <time>2021-11-23T09:36:18Z</time>
      </trkpt>
      <trkpt lat="47.00107" lon="-0.89083">
        <ele>145</ele>
        <time>2021-11-23T09:38:19Z</time>
      </trkpt>
      <trkpt lat="46.99983" lon="-0.88749">
        <ele>151</ele>
        <time>2021-11-23T09:44:05Z</time>
      </trkpt>
      <trkpt lat="46.99927" lon="-0.88792">
        <ele>153</ele>
        <time>2021-11-23T09:45:30Z</time>
      </trkpt>
      <trkpt lat="46.99909" lon="-0.88746">
        <ele>155</ele>
        <time>2021-11-23T09:46:18Z</time>
      </trkpt>
      <trkpt lat="46.99909" lon="-0.8868">
        <ele>159</ele>
        <time>2021-11-23T09:47:18Z</time>
      </trkpt>
      <trkpt lat="46.99937" lon="-0.8844">
        <ele>161</ele>
        <time>2021-11-23T09:51:00Z</time>
      </trkpt>
      <trkpt lat="46.99888" lon="-0.88382">
        <ele>164</ele>
        <time>2021-11-23T09:52:24Z</time>
      </trkpt>
      <trkpt lat="46.9982" lon="-0.8834">
        <ele>166</ele>
        <time>2021-11-23T09:54:02Z</time>
      </trkpt>
      <trkpt lat="46.99776" lon="-0.88431">
        <ele>167</ele>
        <time>2021-11-23T09:55:44Z</time>
      </trkpt>
      <trkpt lat="46.99834" lon="-0.88539">
        <ele>168</ele>
        <time>2021-11-23T09:57:49Z</time>
      </trkpt>
      <trkpt lat="46.99892" lon="-0.88633">
        <ele>162</ele>
        <time>2021-11-23T09:59:44Z</time>
      </trkpt>
      <trkpt lat="46.99927" lon="-0.88856">
        <ele>152</ele>
        <time>2021-11-23T10:03:12Z</time>
      </trkpt>
      <trkpt lat="46.99882" lon="-0.88935">
        <ele>149</ele>
        <time>2021-11-23T10:04:46Z</time>
      </trkpt>
      <trkpt lat="46.99826" lon="-0.89041">
        <ele>146</ele>
        <time>2021-11-23T10:06:48Z</time>
      </trkpt>
      <trkpt lat="46.99714" lon="-0.89177">
        <ele>141</ele>
        <time>2021-11-23T10:10:02Z</time>
      </trkpt>
      <trkpt lat="46.99652" lon="-0.89217">
        <ele>137</ele>
        <time>2021-11-23T10:11:33Z</time>
      </trkpt>
      <trkpt lat="46.99487" lon="-0.89246">
        <ele>131</ele>
        <time>2021-11-23T10:15:14Z</time>
      </trkpt>
    </trkseg>
  </trk>
</gpx>